Time;durP1;ratioP1;P1;durP2;ratioP2;P2;SDS_P1;SDS_P2;PMS_P1;PMS_P2;Temp;Humidity;BMP_temperature;BMP_pressure;BME280_temperature;BME280_humidity;BME280_pressure;Samples;Min_cycle;Max_cycle;Signal;HPM_P1;HPM_P2
2023/01/06 00:00:26;;;;;;;;;1.25;1.00;;;;;12.80;67.98;101583.50;5059888;28;45331;-64
2023/01/06 00:02:52;;;;;;;;;0.00;0.00;;;;;12.81;67.93;101576.94;5041951;28;45633;-65
2023/01/06 00:05:17;;;;;;;;;1.00;0.00;;;;;12.80;68.07;101571.66;5077777;28;45466;-64
2023/01/06 00:07:43;;;;;;;;;1.25;0.25;;;;;12.75;68.09;101566.72;5077629;28;45365;-65
2023/01/06 00:10:09;;;;;;;;;1.25;1.25;;;;;12.64;68.65;101556.34;5077893;28;45373;-65
2023/01/06 00:12:34;;;;;;;;;1.00;1.00;;;;;12.49;68.56;101531.69;5059160;28;46424;-63
2023/01/06 00:15:00;;;;;;;;;2.00;2.00;;;;;12.67;68.87;101562.28;5042857;28;45498;-65
2023/01/06 00:17:26;;;;;;;;;1.00;1.00;;;;;12.72;68.68;101583.69;5072476;28;45357;-64
2023/01/06 00:19:51;;;;;;;;;0.25;0.25;;;;;12.73;68.83;101577.97;5077173;28;45476;-64
2023/01/06 00:22:16;;;;;;;;;1.50;0.50;;;;;12.71;68.54;101587.50;5077365;28;46461;-64
2023/01/06 00:24:42;;;;;;;;;0.00;0.00;;;;;12.67;68.81;101583.44;5057033;28;45496;-64
2023/01/06 00:27:08;;;;;;;;;1.00;1.00;;;;;12.72;68.92;101594.72;5059260;28;45322;-64
2023/01/06 00:29:33;;;;;;;;;2.00;2.00;;;;;12.76;68.69;101592.38;5059298;28;45408;-64
2023/01/06 00:31:59;;;;;;;;;3.00;2.75;;;;;12.71;68.99;101591.09;5076957;28;45956;-64
2023/01/06 00:34:25;;;;;;;;;1.00;1.00;;;;;12.75;68.50;101594.28;5058468;28;45466;-63
2023/01/06 00:36:51;;;;;;;;;1.00;0.00;;;;;12.75;68.87;101602.53;5075661;28;45383;-63
2023/01/06 00:39:17;;;;;;;;;5.00;4.00;;;;;12.78;68.63;101602.16;5092716;27;45285;-64
2023/01/06 00:44:26;;;;;;;;;2.00;2.00;;;;;12.76;68.82;101597.91;5076353;28;45708;-64
2023/01/06 00:46:52;;;;;;;;;0.00;0.00;;;;;12.70;68.36;101591.31;5058572;28;45376;-64
2023/01/06 00:49:17;;;;;;;;;0.00;0.00;;;;;12.69;68.74;101595.97;5058689;28;45847;-64
2023/01/06 00:51:43;;;;;;;;;1.25;1.25;;;;;12.69;69.12;101592.34;5058869;28;46502;-63
2023/01/06 00:54:10;;;;;;;;;1.00;1.00;;;;;12.73;69.26;101593.66;5058457;28;45445;-64
2023/01/06 00:56:36;;;;;;;;;0.40;0.40;;;;;12.69;68.96;101598.72;5058947;28;45374;-64
2023/01/06 00:59:02;;;;;;;;;0.20;0.20;;;;;12.70;68.72;101600.41;5076932;28;45387;-65
2023/01/06 01:01:28;;;;;;;;;0.00;0.00;;;;;12.70;69.15;101600.41;5058135;28;45399;-63
2023/01/06 01:03:53;;;;;;;;;0.25;0.25;;;;;12.66;69.32;101588.13;5076530;28;45578;-64
2023/01/06 01:06:19;;;;;;;;;0.00;0.00;;;;;12.71;69.20;101606.78;5024953;28;45313;-64
2023/01/06 01:08:44;;;;;;;;;1.00;1.00;;;;;12.73;69.42;101608.28;5077043;28;45346;-64
2023/01/06 01:12:08;;;;;;;;;0.00;0.00;;;;;12.68;69.37;101596.16;5057523;28;46483;-64
2023/01/06 01:13:56;;;;;;;;;0.00;0.00;;;;;12.66;69.82;101598.28;5060702;28;45399;-65
2023/01/06 01:16:22;;;;;;;;;1.00;0.25;;;;;12.65;70.51;101613.09;5076276;28;45241;-64
2023/01/06 01:18:47;;;;;;;;;2.00;0.50;;;;;12.63;70.31;101599.53;5058439;28;45590;-64
2023/01/06 01:21:13;;;;;;;;;0.00;0.00;;;;;12.66;70.07;101595.53;5075827;28;45570;-64
2023/01/06 01:23:38;;;;;;;;;0.00;0.00;;;;;12.38;69.97;101555.16;5076037;28;45588;-64
2023/01/06 01:26:04;;;;;;;;;0.00;0.00;;;;;12.63;70.64;101594.03;5058356;28;45722;-64
2023/01/06 01:28:29;;;;;;;;;0.50;0.00;;;;;12.58;70.44;101577.25;5076296;28;45482;-63
2023/01/06 01:31:01;;;;;;;;;0.00;0.00;;;;;12.66;70.34;101584.50;5057838;28;46358;-65
2023/01/06 01:33:30;;;;;;;;;0.00;0.00;;;;;12.62;70.43;101586.81;5057940;28;45464;-64
2023/01/06 01:35:56;;;;;;;;;0.00;0.00;;;;;12.62;70.83;101586.81;5076164;28;45356;-64
2023/01/06 01:38:21;;;;;;;;;1.25;0.00;;;;;12.43;70.77;101556.22;5041210;28;45332;-62
2023/01/06 01:40:47;;;;;;;;;0.00;0.00;;;;;12.61;70.73;101569.44;5040911;28;45487;-63
2023/01/06 01:43:13;;;;;;;;;0.00;0.00;;;;;12.63;70.97;101579.44;5075250;28;45467;-63
2023/01/06 01:45:40;;;;;;;;;1.00;0.00;;;;;12.63;71.24;101572.00;5058002;28;45412;-64
2023/01/06 01:48:12;;;;;;;;;0.80;0.00;;;;;12.63;70.91;101576.66;5058451;28;45443;-64
2023/01/06 01:50:43;;;;;;;;;0.00;0.00;;;;;12.58;71.39;101558.00;5057647;28;46681;-64
2023/01/06 01:53:18;;;;;;;;;1.00;0.00;;;;;12.40;71.43;101522.75;5075001;28;45388;-63
2023/01/06 01:55:44;;;;;;;;;1.40;0.00;;;;;12.57;71.15;101562.66;5041209;28;45401;-64
2023/01/06 01:58:15;;;;;;;;;0.25;0.00;;;;;12.57;70.92;101568.16;5057951;28;45393;-66
2023/01/06 02:00:41;;;;;;;;;0.20;0.00;;;;;12.57;71.42;101568.16;5075931;28;45496;-64
2023/01/06 02:03:07;;;;;;;;;0.00;0.00;;;;;12.38;70.89;101535.88;5040759;28;45394;-64
2023/01/06 02:05:33;;;;;;;;;0.50;0.50;;;;;12.51;70.81;101565.38;5040884;28;45414;-65
2023/01/06 02:08:00;;;;;;;;;0.00;0.00;;;;;12.46;70.80;101550.34;5075948;28;45299;-64
2023/01/06 02:10:25;;;;;;;;;1.00;1.00;;;;;12.50;70.87;101559.03;5057547;28;45715;-64
2023/01/06 02:12:53;;;;;;;;;0.00;0.00;;;;;12.39;70.59;101535.66;5040631;28;45652;-64
2023/01/06 02:15:29;;;;;;;;;1.60;0.00;;;;;12.53;71.04;101555.03;5057547;28;45402;-64
2023/01/06 02:18:14;;;;;;;;;0.20;0.20;;;;;12.52;70.71;101554.16;5057555;28;45936;-64
2023/01/06 02:20:39;;;;;;;;;0.00;0.00;;;;;12.51;71.08;101548.84;5057695;28;45421;-63
2023/01/06 02:23:46;;;;;;;;;0.00;0.00;;;;;12.47;71.00;101556.66;5075428;28;45338;-64
2023/01/06 02:26:15;;;;;;;;;1.00;0.00;;;;;12.47;71.08;101559.44;5012403;28;45506;-64
2023/01/06 02:29:00;;;;;;;;;0.00;0.00;;;;;12.23;71.42;101536.88;5064124;28;45465;-63
2023/01/06 02:31:47;;;;;;;;;0.40;0.40;;;;;12.32;70.92;101538.41;5075298;28;46728;-64
2023/01/06 02:34:28;;;;;;;;;0.00;0.00;;;;;12.49;71.49;101564.72;5075255;28;45309;-64
2023/01/06 02:37:30;;;;;;;;;0.80;0.00;;;;;12.45;71.43;101567.06;5075255;28;45319;-64
2023/01/06 02:40:25;;;;;;;;;0.00;0.00;;;;;12.47;71.35;101557.53;5057238;28;45405;-63
2023/01/06 02:43:15;;;;;;;;;0.00;0.00;;;;;12.48;71.16;101561.13;5057047;28;46265;-64
2023/01/06 02:45:50;;;;;;;;;0.00;0.00;;;;;12.46;71.50;101553.09;5057103;28;45391;-65
2023/01/06 02:48:42;;;;;;;;;0.00;0.00;;;;;12.49;71.23;101546.28;5074775;27;45266;-64
2023/01/06 02:51:12;;;;;;;;;0.20;0.20;;;;;12.46;71.38;101541.22;5075204;28;45479;-62
2023/01/06 02:54:18;;;;;;;;;0.00;0.00;;;;;12.45;71.26;101556.03;5039997;28;47270;-64
2023/01/06 02:56:49;;;;;;;;;0.00;0.00;;;;;12.38;71.39;101528.47;5039677;28;45406;-64
2023/01/06 02:59:25;;;;;;;;;0.00;0.00;;;;;12.43;71.48;101544.38;5039580;28;45256;-64
2023/01/06 03:01:53;;;;;;;;;0.40;0.00;;;;;12.41;71.25;101525.31;5027337;28;45393;-64
2023/01/06 03:04:25;;;;;;;;;0.80;0.80;;;;;12.40;71.29;101523.63;5053737;28;45662;-64
2023/01/06 03:06:51;;;;;;;;;0.40;0.40;;;;;12.16;71.34;101472.69;5040436;28;45893;-64
2023/01/06 03:09:19;;;;;;;;;0.00;0.00;;;;;12.38;71.51;101511.94;5073166;28;45465;-65
2023/01/06 03:11:46;;;;;;;;;0.00;0.00;;;;;12.40;71.29;101514.50;5057136;28;45397;-64
2023/01/06 03:14:14;;;;;;;;;0.00;0.00;;;;;12.38;71.52;101514.69;5056354;28;45568;-63
2023/01/06 03:16:40;;;;;;;;;0.00;0.00;;;;;12.34;71.33;101505.16;5073240;28;45373;-63
2023/01/06 03:19:05;;;;;;;;;0.00;0.00;;;;;12.36;71.33;101507.69;5074660;28;45319;-63
2023/01/06 03:21:33;;;;;;;;;0.25;0.25;;;;;12.39;71.29;101521.06;5056541;28;45611;-63
2023/01/06 03:23:59;;;;;;;;;0.00;0.00;;;;;12.37;71.68;101517.69;5056653;28;45686;-62
2023/01/06 03:26:24;;;;;;;;;0.00;0.00;;;;;12.42;71.15;101517.88;5056128;28;45471;-62
2023/01/06 03:28:50;;;;;;;;;0.00;0.00;;;;;12.43;70.96;101523.19;5090504;27;45273;-63
2023/01/06 03:31:38;;;;;;;;;0.00;0.00;;;;;12.39;71.49;101516.38;5056539;28;45591;-63
2023/01/06 03:34:24;;;;;;;;;0.80;0.80;;;;;12.46;71.17;101521.94;5074198;28;46604;-63
2023/01/06 03:37:08;;;;;;;;;0.00;0.00;;;;;12.29;71.01;101489.28;5074484;28;45311;-63
2023/01/06 03:40:44;;;;;;;;;1.00;1.00;;;;;12.44;71.28;101511.13;5089781;27;45490;-64
2023/01/06 03:43:14;;;;;;;;;0.00;0.00;;;;;12.42;71.14;101512.38;4916158;28;45469;-64
2023/01/06 03:46:07;;;;;;;;;0.00;0.00;;;;;12.41;71.50;101518.94;5059436;28;46414;-63
2023/01/06 03:48:38;;;;;;;;;1.00;1.00;;;;;12.25;71.30;101492.63;5074123;28;45293;-63
2023/01/06 03:51:41;;;;;;;;;0.00;0.00;;;;;12.39;71.91;101510.06;5056239;28;45464;-63
2023/01/06 03:54:19;;;;;;;;;0.00;0.00;;;;;12.39;72.07;101510.88;5056318;28;45356;-63
2023/01/06 03:56:48;;;;;;;;;0.00;0.00;;;;;12.36;71.88;101499.44;5073505;27;47637;-63
2023/01/06 03:59:16;;;;;;;;;0.00;0.00;;;;;12.41;72.07;101500.53;5056157;28;45412;-64
2023/01/06 04:01:44;;;;;;;;;0.00;0.00;;;;;12.39;71.71;101482.53;5056197;28;45500;-63
2023/01/06 04:04:10;;;;;;;;;1.00;1.00;;;;;12.35;72.35;101471.09;5039614;28;45453;-63
2023/01/06 04:06:35;;;;;;;;;0.50;0.50;;;;;12.43;72.04;101479.16;5055774;28;48003;-63
2023/01/06 04:09:01;;;;;;;;;0.00;0.00;;;;;12.43;71.78;101497.59;5055892;28;45393;-63
2023/01/06 04:14:10;;;;;;;;;0.00;0.00;;;;;12.43;72.32;101483.81;5074046;28;45352;-63
2023/01/06 04:16:36;;;;;;;;;0.75;0.75;;;;;12.38;71.83;101478.91;5056632;28;46980;-63
2023/01/06 04:19:02;;;;;;;;;0.00;0.00;;;;;12.31;72.17;101481.66;5042388;28;45440;-63
2023/01/06 04:21:27;;;;;;;;;1.00;0.00;;;;;12.30;72.32;101471.69;5059534;28;45330;-63
2023/01/06 04:23:53;;;;;;;;;0.25;0.00;;;;;12.19;72.34;101464.88;5059188;28;45376;-64
2023/01/06 04:26:18;;;;;;;;;0.00;0.00;;;;;12.29;71.97;101486.53;5059445;28;45364;-63
2023/01/06 04:28:44;;;;;;;;;0.75;0.00;;;;;12.29;72.07;101489.28;5077076;28;45448;-64
2023/01/06 04:31:10;;;;;;;;;0.00;0.00;;;;;12.15;72.11;101462.72;5058815;28;45399;-63
2023/01/06 04:33:35;;;;;;;;;0.00;0.00;;;;;12.29;72.13;101486.53;5059384;28;45387;-63
2023/01/06 04:36:01;;;;;;;;;0.00;0.00;;;;;12.31;72.29;101484.41;5058352;28;45890;-63
2023/01/06 04:38:26;;;;;;;;;0.00;0.00;;;;;12.26;72.14;101472.28;5038782;28;46171;-63
2023/01/06 04:40:52;;;;;;;;;0.00;0.00;;;;;12.30;72.37;101481.84;5076836;28;45361;-64
2023/01/06 04:43:18;;;;;;;;;1.00;0.00;;;;;12.24;72.61;101464.25;5058774;28;45639;-64
2023/01/06 04:45:44;;;;;;;;;0.00;0.00;;;;;12.29;72.44;101467.25;5074936;27;45915;-64
2023/01/06 04:48:10;;;;;;;;;0.00;0.00;;;;;12.28;72.38;101468.28;5076379;28;45496;-64
2023/01/06 04:50:35;;;;;;;;;0.00;0.00;;;;;12.27;72.61;101463.84;5076282;28;45299;-64
2023/01/06 04:53:01;;;;;;;;;0.00;0.00;;;;;12.26;72.43;101467.66;5058238;28;45413;-64
2023/01/06 04:55:27;;;;;;;;;0.00;0.00;;;;;12.26;72.95;101456.66;5058317;28;46248;-64
2023/01/06 04:57:53;;;;;;;;;0.00;0.00;;;;;12.24;72.47;101464.25;5057925;28;45403;-64
2023/01/06 05:00:18;;;;;;;;;2.50;1.75;;;;;12.28;72.26;101459.19;5076833;28;45300;-66
2023/01/06 05:02:44;;;;;;;;;0.00;0.00;;;;;12.28;72.82;101464.69;5075180;28;45349;-64
2023/01/06 05:05:10;;;;;;;;;0.00;0.00;;;;;12.26;72.61;101462.16;5058117;28;46112;-64
2023/01/06 05:07:36;;;;;;;;;0.00;0.00;;;;;11.94;72.72;101392.97;5075223;28;45394;-63
2023/01/06 05:10:02;;;;;;;;;1.00;0.00;;;;;12.26;72.96;101444.78;5058417;28;45571;-64
2023/01/06 05:12:28;;;;;;;;;0.00;0.00;;;;;12.27;73.46;101461.09;5058739;28;45310;-64
2023/01/06 05:14:53;;;;;;;;;1.00;0.75;;;;;12.30;72.54;101446.06;5076318;28;46024;-64
2023/01/06 05:17:19;;;;;;;;;0.00;0.00;;;;;12.11;72.69;101415.50;5076184;28;45513;-64
2023/01/06 05:19:44;;;;;;;;;1.00;0.00;;;;;12.28;72.82;101442.69;5076665;28;45456;-64
2023/01/06 05:22:10;;;;;;;;;0.00;0.00;;;;;12.27;72.76;101450.06;5076260;28;45292;-65
2023/01/06 05:24:36;;;;;;;;;0.00;0.00;;;;;12.28;73.00;101450.94;5076391;28;45902;-64
2023/01/06 05:27:02;;;;;;;;;0.00;0.00;;;;;12.29;72.73;101459.00;5075852;28;45404;-64
2023/01/06 05:29:27;;;;;;;;;0.00;0.00;;;;;12.29;72.65;101461.75;5058277;28;45436;-64
2023/01/06 05:31:53;;;;;;;;;0.00;0.00;;;;;12.26;73.18;101453.03;5076344;28;45390;-66
2023/01/06 05:34:18;;;;;;;;;0.25;0.25;;;;;12.35;73.08;101471.09;5057506;28;46282;-64
2023/01/06 05:36:44;;;;;;;;;0.50;0.50;;;;;12.31;72.99;101470.66;5075654;28;45740;-64
2023/01/06 05:39:09;;;;;;;;;1.00;1.00;;;;;12.12;73.09;101452.97;5058040;28;45321;-64
2023/01/06 05:41:35;;;;;;;;;0.75;0.75;;;;;12.31;73.14;101497.31;5047333;28;45397;-64
2023/01/06 05:44:00;;;;;;;;;0.00;0.00;;;;;12.31;73.09;101491.81;5065277;28;46067;-63
2023/01/06 05:46:26;;;;;;;;;0.00;0.00;;;;;12.32;73.19;101488.84;5073428;28;45476;-64
2023/01/06 05:48:51;;;;;;;;;1.00;1.00;;;;;12.31;73.09;101489.91;5075699;28;45311;-64
2023/01/06 05:51:17;;;;;;;;;2.25;0.00;;;;;12.30;73.19;101482.72;5074485;28;45612;-64
2023/01/06 05:53:43;;;;;;;;;0.00;0.00;;;;;12.13;72.86;101457.44;5075279;28;46281;-64
2023/01/06 05:56:11;;;;;;;;;0.00;0.00;;;;;12.36;73.06;101499.44;5057639;28;46018;-65
2023/01/06 05:58:39;;;;;;;;;0.00;0.00;;;;;12.30;72.84;101487.34;5075614;28;45445;-65
2023/01/06 06:01:04;;;;;;;;;0.00;0.00;;;;;12.34;73.26;101491.41;5058077;28;45593;-65
2023/01/06 06:03:30;;;;;;;;;0.00;0.00;;;;;12.34;72.93;101492.25;5075143;28;45583;-63
2023/01/06 06:06:04;;;;;;;;;2.50;1.75;;;;;12.28;72.66;101481.22;5075723;28;45360;-66
2023/01/06 06:08:29;;;;;;;;;1.00;1.00;;;;;12.20;72.78;101462.97;5056900;28;45572;-66
2023/01/06 06:10:55;;;;;;;;;1.00;1.00;;;;;12.42;72.73;101501.38;5075900;28;45266;-65
2023/01/06 06:13:20;;;;;;;;;1.00;1.00;;;;;12.41;72.87;101485.91;5056846;28;45418;-65
2023/01/06 06:15:46;;;;;;;;;0.00;0.00;;;;;12.41;72.37;101496.91;5075123;28;45516;-66
2023/01/06 06:18:11;;;;;;;;;0.00;0.00;;;;;12.41;72.48;101499.69;5057381;28;45369;-66
2023/01/06 06:20:37;;;;;;;;;1.00;0.00;;;;;12.42;72.46;101493.97;5075692;28;45412;-65
2023/01/06 06:23:02;;;;;;;;;1.00;1.00;;;;;12.36;72.24;101499.44;5056997;28;46232;-64
2023/01/06 06:25:28;;;;;;;;;0.00;0.00;;;;;12.40;72.93;101490.59;5057148;28;45584;-64
2023/01/06 06:27:58;;;;;;;;;2.25;1.50;;;;;12.22;72.45;101465.53;5075264;28;45448;-64
2023/01/06 06:30:23;;;;;;;;;1.00;1.00;;;;;12.41;72.76;101491.41;5057168;28;45355;-65
2023/01/06 06:32:49;;;;;;;;;0.00;0.00;;;;;12.42;72.70;101496.72;5056422;28;45716;-64
2023/01/06 06:35:14;;;;;;;;;1.50;1.50;;;;;12.41;72.60;101491.41;5057223;28;45267;-65
2023/01/06 06:37:40;;;;;;;;;1.00;1.00;;;;;12.44;72.52;101502.03;5074983;28;45436;-65
2023/01/06 06:40:06;;;;;;;;;0.00;0.00;;;;;12.43;72.33;101500.34;5056402;28;45467;-65
2023/01/06 06:42:32;;;;;;;;;1.60;1.60;;;;;12.42;72.71;101509.63;5073380;28;45727;-65
2023/01/06 06:44:57;;;;;;;;;2.25;2.25;;;;;12.44;72.43;101515.81;5074588;28;45396;-65
2023/01/06 06:47:23;;;;;;;;;1.50;0.25;;;;;12.45;72.36;101512.81;5075252;28;45871;-65
2023/01/06 06:49:50;;;;;;;;;2.00;2.00;;;;;12.45;72.77;101509.22;5056784;28;45479;-64
2023/01/06 06:52:15;;;;;;;;;0.00;0.00;;;;;12.39;72.98;101505.38;5056606;28;47581;-64
2023/01/06 06:54:41;;;;;;;;;1.00;1.00;;;;;12.45;72.13;101514.75;5044231;28;45299;-65
2023/01/06 06:57:06;;;;;;;;;0.00;0.00;;;;;12.41;72.56;101502.44;5073154;28;45337;-65
2023/01/06 06:59:31;;;;;;;;;1.00;1.00;;;;;12.43;72.86;101509.44;5075085;28;45376;-65
2023/01/06 07:01:57;;;;;;;;;4.50;2.00;;;;;12.44;72.64;101511.13;5074554;28;45362;-65
2023/01/06 07:04:22;;;;;;;;;2.00;2.00;;;;;12.45;72.74;101512.00;5074780;28;45392;-65
2023/01/06 07:06:48;;;;;;;;;1.00;1.00;;;;;12.44;72.60;101502.03;5073363;28;45355;-65
2023/01/06 07:09:14;;;;;;;;;0.75;0.75;;;;;12.38;72.65;101500.94;5074972;28;45345;-65
2023/01/06 07:11:39;;;;;;;;;1.00;0.50;;;;;12.43;73.15;101506.69;5074335;28;45814;-64
2023/01/06 07:14:05;;;;;;;;;0.00;0.00;;;;;12.32;73.17;101483.34;5056347;28;45942;-65
2023/01/06 07:16:30;;;;;;;;;0.25;0.25;;;;;12.28;72.96;101490.31;5056342;28;45918;-65
2023/01/06 07:18:56;;;;;;;;;3.25;2.00;;;;;12.43;72.98;101517.69;5074584;28;45706;-64
2023/01/06 07:21:21;;;;;;;;;1.50;0.00;;;;;12.43;73.23;101517.69;5074268;28;45350;-64
2023/01/06 07:23:47;;;;;;;;;2.25;1.75;;;;;12.44;72.87;101526.81;5074384;28;45749;-64
2023/01/06 07:26:14;;;;;;;;;0.00;0.00;;;;;12.43;73.12;101522.38;5056478;28;45248;-64
2023/01/06 07:28:40;;;;;;;;;2.00;0.60;;;;;12.03;73.05;101456.94;5074693;28;45432;-64
2023/01/06 07:31:05;;;;;;;;;1.00;1.00;;;;;12.49;73.29;101528.94;5072748;28;46631;-64
2023/01/06 07:33:30;;;;;;;;;1.00;1.00;;;;;12.46;72.51;101524.69;5074182;28;45410;-64
2023/01/06 07:35:56;;;;;;;;;0.25;0.25;;;;;12.47;73.22;101526.38;5056099;28;45421;-64
2023/01/06 07:38:22;;;;;;;;;1.00;1.00;;;;;12.49;73.31;101517.94;5074422;28;45585;-64
2023/01/06 07:40:47;;;;;;;;;0.50;0.50;;;;;12.48;73.00;101511.56;5055588;28;46646;-64
2023/01/06 07:43:13;;;;;;;;;0.25;0.25;;;;;12.47;73.25;101512.63;5074096;28;45243;-64
2023/01/06 07:45:38;;;;;;;;;1.00;0.00;;;;;12.37;73.41;101493.72;5056475;28;45385;-64
2023/01/06 07:48:04;;;;;;;;;3.00;2.00;;;;;12.49;73.65;101515.19;5039324;28;45206;-65
2023/01/06 07:50:31;;;;;;;;;1.00;1.00;;;;;12.47;73.86;101515.38;5075284;28;46308;-64
2023/01/06 07:52:57;;;;;;;;;2.00;2.00;;;;;12.42;73.46;101507.75;5077509;28;45534;-64
2023/01/06 07:55:22;;;;;;;;;1.00;1.00;;;;;12.49;73.56;101516.00;5077766;28;45370;-65
2023/01/06 07:57:48;;;;;;;;;1.00;1.00;;;;;12.30;73.45;101487.34;5078197;28;45598;-64
2023/01/06 08:00:14;;;;;;;;;3.00;0.25;;;;;12.29;73.44;101485.66;5059577;28;46234;-65
2023/01/06 08:02:39;;;;;;;;;2.00;0.60;;;;;12.48;73.20;101517.06;5059521;28;45345;-64
2023/01/06 08:05:05;;;;;;;;;0.00;0.00;;;;;12.44;73.41;101513.88;5077760;28;45365;-64
2023/01/06 08:07:30;;;;;;;;;3.50;2.00;;;;;12.51;73.17;101524.06;5059466;28;45394;-64
2023/01/06 08:09:56;;;;;;;;;1.00;1.00;;;;;12.53;73.17;101528.31;5059621;28;46628;-65
2023/01/06 08:12:21;;;;;;;;;1.50;1.50;;;;;12.54;73.18;101521.75;5077266;28;45420;-64
2023/01/06 08:14:47;;;;;;;;;3.00;3.00;;;;;12.49;73.43;101513.25;5077801;28;45334;-65
2023/01/06 08:17:13;;;;;;;;;4.00;2.50;;;;;12.51;73.30;101526.81;5042293;28;45560;-64
2023/01/06 08:19:38;;;;;;;;;2.00;2.00;;;;;12.51;73.26;101519.44;5077335;28;46585;-66
2023/01/06 08:22:04;;;;;;;;;1.75;1.75;;;;;12.49;73.31;101517.94;5059127;28;45244;-64
2023/01/06 08:24:29;;;;;;;;;1.50;1.00;;;;;12.55;73.28;101533.63;5059081;28;45608;-66
2023/01/06 08:26:56;;;;;;;;;1.00;1.00;;;;;12.50;73.23;101523.25;5059379;28;45570;-65
2023/01/06 08:29:22;;;;;;;;;1.20;1.00;;;;;12.55;73.29;101537.22;5058561;28;47829;-64
2023/01/06 08:31:48;;;;;;;;;2.00;2.00;;;;;12.54;73.02;101530.00;5077533;28;46023;-64
2023/01/06 08:34:13;;;;;;;;;1.00;1.00;;;;;12.50;73.58;101526.00;5059181;28;45534;-64
2023/01/06 08:36:40;;;;;;;;;3.50;2.25;;;;;12.60;73.29;101528.34;5059077;28;45400;-65
2023/01/06 08:39:06;;;;;;;;;3.00;2.00;;;;;12.62;73.01;101540.00;5059089;28;45389;-64
2023/01/06 08:41:32;;;;;;;;;1.40;1.40;;;;;12.63;72.92;101541.69;5075434;28;45858;-64
2023/01/06 08:43:57;;;;;;;;;3.00;2.00;;;;;12.60;73.17;101542.97;5058822;28;45302;-65
2023/01/06 08:46:25;;;;;;;;;3.00;3.00;;;;;12.47;73.27;101527.25;5051030;27;45591;-64
2023/01/06 08:48:50;;;;;;;;;1.00;1.00;;;;;12.53;73.00;101530.25;5073958;28;46843;-62
2023/01/06 08:51:17;;;;;;;;;1.75;1.75;;;;;12.64;73.15;101540.63;5073352;28;45337;-61
2023/01/06 08:53:43;;;;;;;;;1.40;1.40;;;;;12.62;73.50;101534.50;5076815;28;45387;-63
2023/01/06 08:56:25;;;;;;;;;4.00;2.00;;;;;12.63;73.12;101547.22;5076977;28;45404;-64
2023/01/06 08:58:52;;;;;;;;;3.00;2.00;;;;;12.61;72.90;101541.91;5041271;28;47364;-62
2023/01/06 09:01:20;;;;;;;;;3.00;2.00;;;;;12.27;73.39;101476.78;5076235;28;45455;-63
2023/01/06 09:03:46;;;;;;;;;3.00;3.00;;;;;12.43;73.53;101525.94;5076271;28;45367;-61
2023/01/06 09:06:12;;;;;;;;;2.75;2.25;;;;;12.54;73.51;101546.53;5077130;28;45448;-64
2023/01/06 09:08:37;;;;;;;;;1.00;1.00;;;;;12.55;73.83;101539.13;5041080;28;47807;-64
2023/01/06 09:11:05;;;;;;;;;4.25;3.00;;;;;12.58;73.54;101544.22;5076571;28;45345;-65
2023/01/06 09:13:30;;;;;;;;;3.80;2.80;;;;;12.40;73.60;101518.13;5076396;28;45421;-64
2023/01/06 09:15:56;;;;;;;;;3.50;3.50;;;;;12.57;74.01;101546.13;5075636;28;45422;-65
2023/01/06 09:18:21;;;;;;;;;2.00;2.00;;;;;12.59;73.70;101545.91;5075920;28;46082;-64
2023/01/06 09:20:47;;;;;;;;;4.75;4.00;;;;;12.55;73.78;101550.97;5075611;28;45401;-62
2023/01/06 09:23:12;;;;;;;;;3.75;2.75;;;;;12.56;74.02;101549.94;5075025;28;45447;-66
2023/01/06 09:25:38;;;;;;;;;4.00;2.00;;;;;12.57;74.13;101559.03;5076531;28;45373;-64
2023/01/06 09:28:03;;;;;;;;;2.00;1.75;;;;;12.52;74.47;101545.91;5076108;28;46072;-65
2023/01/06 09:30:29;;;;;;;;;2.00;2.00;;;;;12.60;74.50;101555.91;5056818;27;45489;-63
2023/01/06 09:32:55;;;;;;;;;2.00;2.00;;;;;12.55;74.29;101548.22;5070078;28;45370;-62
2023/01/06 09:35:20;;;;;;;;;2.00;2.00;;;;;12.58;74.44;101553.34;5029396;28;45812;-61
2023/01/06 09:37:46;;;;;;;;;5.75;2.75;;;;;12.64;73.92;101562.66;5068513;28;46533;-61
2023/01/06 09:40:18;;;;;;;;;3.50;2.50;;;;;12.62;74.10;101562.03;5069140;28;45400;-62
2023/01/06 09:43:34;;;;;;;;;3.80;2.20;;;;;12.64;74.21;101567.34;5050547;28;45883;-62
2023/01/06 09:46:00;;;;;;;;;3.40;2.20;;;;;12.68;74.12;101565.88;4989083;28;45557;-61
2023/01/06 09:48:34;;;;;;;;;1.80;1.80;;;;;12.43;73.96;101536.97;4983988;28;47833;-62
2023/01/06 09:51:01;;;;;;;;;3.20;3.20;;;;;12.63;74.53;101560.16;4984891;28;45821;-59
2023/01/06 09:53:38;;;;;;;;;3.00;2.60;;;;;12.64;73.77;101557.16;5050640;28;45815;-61
2023/01/06 09:56:06;;;;;;;;;5.80;2.00;;;;;12.66;73.88;101560.59;5051725;28;45322;-61
2023/01/06 09:58:43;;;;;;;;;4.80;3.00;;;;;12.67;73.87;101556.78;5033275;28;46050;-62
2023/01/06 10:01:15;;;;;;;;;3.80;3.00;;;;;12.67;74.20;101570.53;5050851;28;45545;-63
2023/01/06 10:03:42;;;;;;;;;2.00;2.00;;;;;12.68;74.02;101560.34;5052069;28;45481;-62
2023/01/06 10:06:43;;;;;;;;;6.40;6.40;;;;;12.72;74.10;101567.16;5036188;28;45547;-64
2023/01/06 10:09:19;;;;;;;;;3.80;2.60;;;;;12.77;73.85;101572.91;5070702;28;46359;-63
2023/01/06 10:11:50;;;;;;;;;7.00;3.00;;;;;12.74;73.82;101565.03;5052617;28;45441;-60
2023/01/06 10:14:53;;;;;;;;;4.00;4.00;;;;;12.66;74.02;101573.50;5069130;28;45504;-60
2023/01/06 10:17:27;;;;;;;;;1.60;1.40;;;;;12.67;74.32;101580.69;5066014;28;45434;-63
2023/01/06 10:20:17;;;;;;;;;4.00;2.00;;;;;12.69;73.94;101579.44;5068618;28;46405;-64
2023/01/06 10:23:01;;;;;;;;;3.40;2.20;;;;;12.72;74.01;101583.69;5071015;28;45536;-64
2023/01/06 10:25:32;;;;;;;;;2.60;2.60;;;;;12.63;74.05;101563.72;5051778;28;45606;-63
2023/01/06 10:27:58;;;;;;;;;4.00;2.80;;;;;12.69;74.36;101578.56;5053050;28;45532;-60
2023/01/06 10:30:28;;;;;;;;;4.75;3.75;;;;;12.52;74.35;101554.16;5070593;28;46597;-59
2023/01/06 10:32:54;;;;;;;;;5.60;3.80;;;;;12.77;73.97;101581.16;5032536;28;45537;-58
2023/01/06 10:35:20;;;;;;;;;2.75;2.00;;;;;12.79;73.98;101586.44;5069437;28;45381;-60
2023/01/06 10:37:47;;;;;;;;;6.00;3.00;;;;;12.78;74.10;101588.38;5050967;28;45706;-60
2023/01/06 10:40:17;;;;;;;;;4.80;3.80;;;;;12.79;73.79;101579.06;5052207;28;48182;-60
2023/01/06 10:43:02;;;;;;;;;4.40;2.80;;;;;12.77;73.90;101572.91;5070816;28;45376;-59
2023/01/06 10:45:40;;;;;;;;;2.60;2.60;;;;;12.80;73.91;101571.66;5070540;28;45492;-58
2023/01/06 10:48:09;;;;;;;;;3.00;3.00;;;;;12.82;73.88;101567.59;5070843;28;45792;-60
2023/01/06 10:50:35;;;;;;;;;3.60;3.60;;;;;12.81;74.42;101567.84;5024737;28;46238;-59
2023/01/06 10:53:01;;;;;;;;;4.25;3.75;;;;;12.79;73.99;101564.41;5070727;28;45696;-58
2023/01/06 10:55:41;;;;;;;;;3.50;3.00;;;;;12.82;74.15;101570.34;5070525;28;45747;-60
2023/01/06 10:58:34;;;;;;;;;2.40;2.40;;;;;12.87;73.78;101564.25;5071012;28;45749;-60
2023/01/06 11:01:16;;;;;;;;;4.60;3.80;;;;;12.87;73.93;101553.22;5058072;28;46164;-60
2023/01/06 11:03:41;;;;;;;;;3.00;3.00;;;;;12.94;73.57;101559.59;5052017;28;45479;-59
2023/01/06 11:06:13;;;;;;;;;3.50;2.00;;;;;12.99;73.54;101550.72;5070479;28;45385;-59
2023/01/06 11:08:38;;;;;;;;;3.20;3.20;;;;;13.06;73.30;101548.81;5069240;28;45807;-60
2023/01/06 11:11:08;;;;;;;;;2.75;2.25;;;;;13.09;73.24;101553.94;5068885;28;45523;-60
2023/01/06 11:13:35;;;;;;;;;5.00;5.00;;;;;13.05;73.40;101544.38;5085749;27;45357;-57
2023/01/06 11:16:05;;;;;;;;;2.40;2.20;;;;;13.13;73.36;101546.91;5050832;28;45646;-61
2023/01/06 11:18:32;;;;;;;;;4.00;3.60;;;;;13.09;72.96;101540.16;5036311;28;45338;-61
2023/01/06 11:21:08;;;;;;;;;4.40;4.40;;;;;13.06;73.38;101525.91;5051237;28;46629;-61
2023/01/06 11:23:34;;;;;;;;;3.00;2.80;;;;;13.19;73.25;101536.13;5053479;28;45390;-60
2023/01/06 11:26:01;;;;;;;;;5.20;4.20;;;;;12.98;72.94;101500.25;5056083;28;45362;-62
2023/01/06 11:28:27;;;;;;;;;4.00;2.80;;;;;13.23;73.18;101520.88;5057814;28;45514;-62
2023/01/06 11:30:54;;;;;;;;;6.00;5.00;;;;;13.23;72.63;101518.94;5057680;28;46212;-61
2023/01/06 11:33:23;;;;;;;;;5.80;4.80;;;;;13.10;72.73;101506.00;5039811;28;45499;-63
2023/01/06 11:35:49;;;;;;;;;5.60;3.00;;;;;13.22;72.70;101520.00;5057587;28;45314;-61
2023/01/06 11:38:17;;;;;;;;;4.00;2.50;;;;;13.08;72.78;101504.53;5040073;28;45615;-63